Aviation Digital Data Service (ADDS)

Output produced by METARs form (1726 UTC 24 June 2019)
found at http://www.aviationweather.gov/metar/data/
 
METAR text: WIOO 241500Z 00000KT 6000 FEW013 26/23 Q1011 NOSIG
Conditions at: WIOO (PONTIANAK/SUPADI, ID) observed 1500 UTC 24 June 2019
Temperature: 26.0°C (79°F)
Dewpoint: 23.0°C (73°F) [RH = 84%]
Pressure (altimeter): 29.85 inches Hg (1011.0 mb)
Winds: calm
Visibility: 4 miles ( 6 km)
Ceiling: at least 12,000 feet AGL
Clouds: few clouds at 1300 feet AGL
Weather: no significant weather observed at this time

METAR text: WIOO 241430Z 18003KT 6000 FEW013 26/23 Q1011 NOSIG
Conditions at: WIOO (PONTIANAK/SUPADI, ID) observed 1430 UTC 24 June 2019
Temperature: 26.0°C (79°F)
Dewpoint: 23.0°C (73°F) [RH = 84%]
Pressure (altimeter): 29.85 inches Hg (1011.0 mb)
Winds: from the S (180 degrees) at 3 MPH (3 knots; 1.5 m/s)
Visibility: 4 miles ( 6 km)
Ceiling: at least 12,000 feet AGL
Clouds: few clouds at 1300 feet AGL
Weather: no significant weather observed at this time

METAR text: WIOO 241400Z 00000KT 3500 HZ FEW013 27/24 Q1011 NOSIG
Conditions at: WIOO (PONTIANAK/SUPADI, ID) observed 1400 UTC 24 June 2019
Temperature: 27.0°C (81°F)
Dewpoint: 24.0°C (75°F) [RH = 84%]
Pressure (altimeter): 29.85 inches Hg (1011.0 mb)
Winds: calm
Visibility: 2.17 miles (3.49 km)
Ceiling: at least 12,000 feet AGL
Clouds: few clouds at 1300 feet AGL
Weather: HZ  (haze)

METAR text: WIOO 241230Z 00000KT 4000 HZ FEW013 28/24 Q1010 NOSIG
Conditions at: WIOO (PONTIANAK/SUPADI, ID) observed 1230 UTC 24 June 2019
Temperature: 28.0°C (82°F)
Dewpoint: 24.0°C (75°F) [RH = 79%]
Pressure (altimeter): 29.82 inches Hg (1010.0 mb)
Winds: calm
Visibility: 2.49 miles (4.01 km)
Ceiling: at least 12,000 feet AGL
Clouds: few clouds at 1300 feet AGL
Weather: HZ  (haze)

METAR text: WIOO 241200Z 17003KT 3000 HZ FEW013 29/24 Q1009 NOSIG
Conditions at: WIOO (PONTIANAK/SUPADI, ID) observed 1200 UTC 24 June 2019
Temperature: 29.0°C (84°F)
Dewpoint: 24.0°C (75°F) [RH = 74%]
Pressure (altimeter): 29.79 inches Hg (1009.0 mb)
Winds: from the S (170 degrees) at 3 MPH (3 knots; 1.5 m/s)
Visibility: 1.86 miles (2.99 km)
Ceiling: at least 12,000 feet AGL
Clouds: few clouds at 1300 feet AGL
Weather: HZ  (haze)

METAR text: WIOO 241130Z 00000KT 3000 HZ FEW013 29/24 Q1009 NOSIG
Conditions at: WIOO (PONTIANAK/SUPADI, ID) observed 1130 UTC 24 June 2019
Temperature: 29.0°C (84°F)
Dewpoint: 24.0°C (75°F) [RH = 74%]
Pressure (altimeter): 29.79 inches Hg (1009.0 mb)
Winds: calm
Visibility: 1.86 miles (2.99 km)
Ceiling: at least 12,000 feet AGL
Clouds: few clouds at 1300 feet AGL
Weather: HZ  (haze)

METAR text: WIOO 241100Z 00000KT 4000 HZ FEW013 30/24 Q1009 NOSIG
Conditions at: WIOO (PONTIANAK/SUPADI, ID) observed 1100 UTC 24 June 2019
Temperature: 30.0°C (86°F)
Dewpoint: 24.0°C (75°F) [RH = 70%]
Pressure (altimeter): 29.79 inches Hg (1009.0 mb)
Winds: calm
Visibility: 2.49 miles (4.01 km)
Ceiling: at least 12,000 feet AGL
Clouds: few clouds at 1300 feet AGL
Weather: HZ  (haze)

METAR text: WIOO 241030Z 00000KT 7000 FEW013 31/23 Q1009 NOSIG
Conditions at: WIOO (PONTIANAK/SUPADI, ID) observed 1030 UTC 24 June 2019
Temperature: 31.0°C (88°F)
Dewpoint: 23.0°C (73°F) [RH = 63%]
Pressure (altimeter): 29.79 inches Hg (1009.0 mb)
Winds: calm
Visibility: 4 miles ( 7 km)
Ceiling: at least 12,000 feet AGL
Clouds: few clouds at 1300 feet AGL
Weather: no significant weather observed at this time

METAR text: WIOO 241000Z 00000KT 9999 FEW013 31/23 Q1008 NOSIG
Conditions at: WIOO (PONTIANAK/SUPADI, ID) observed 1000 UTC 24 June 2019
Temperature: 31.0°C (88°F)
Dewpoint: 23.0°C (73°F) [RH = 63%]
Pressure (altimeter): 29.76 inches Hg (1008.0 mb)
Winds: calm
Visibility: 6 or more miles (10+ km)
Ceiling: at least 12,000 feet AGL
Clouds: few clouds at 1300 feet AGL
Weather: no significant weather observed at this time

METAR text: WIOO 240930Z 14004KT 9999 FEW013 31/23 Q1008 NOSIG
Conditions at: WIOO (PONTIANAK/SUPADI, ID) observed 0930 UTC 24 June 2019
Temperature: 31.0°C (88°F)
Dewpoint: 23.0°C (73°F) [RH = 63%]
Pressure (altimeter): 29.76 inches Hg (1008.0 mb)
Winds: from the SE (140 degrees) at 5 MPH (4 knots; 2.1 m/s)
Visibility: 6 or more miles (10+ km)
Ceiling: at least 12,000 feet AGL
Clouds: few clouds at 1300 feet AGL
Weather: no significant weather observed at this time

METAR text: WIOO 240830Z 09003KT 9999 FEW013 32/22 Q1008 NOSIG
Conditions at: WIOO (PONTIANAK/SUPADI, ID) observed 0830 UTC 24 June 2019
Temperature: 32.0°C (90°F)
Dewpoint: 22.0°C (72°F) [RH = 56%]
Pressure (altimeter): 29.76 inches Hg (1008.0 mb)
Winds: from the E (90 degrees) at 3 MPH (3 knots; 1.5 m/s)
Visibility: 6 or more miles (10+ km)
Ceiling: at least 12,000 feet AGL
Clouds: few clouds at 1300 feet AGL
Weather: no significant weather observed at this time

METAR text: WIOO 240800Z 13006KT 9999 FEW013 32/22 Q1008 NOSIG
Conditions at: WIOO (PONTIANAK/SUPADI, ID) observed 0800 UTC 24 June 2019
Temperature: 32.0°C (90°F)
Dewpoint: 22.0°C (72°F) [RH = 56%]
Pressure (altimeter): 29.76 inches Hg (1008.0 mb)
Winds: from the SE (130 degrees) at 7 MPH (6 knots; 3.1 m/s)
Visibility: 6 or more miles (10+ km)
Ceiling: at least 12,000 feet AGL
Clouds: few clouds at 1300 feet AGL
Weather: no significant weather observed at this time

METAR text: WIOO 240730Z 13007KT 9999 FEW013 32/22 Q1008 NOSIG
Conditions at: WIOO (PONTIANAK/SUPADI, ID) observed 0730 UTC 24 June 2019
Temperature: 32.0°C (90°F)
Dewpoint: 22.0°C (72°F) [RH = 56%]
Pressure (altimeter): 29.76 inches Hg (1008.0 mb)
Winds: from the SE (130 degrees) at 8 MPH (7 knots; 3.6 m/s)
Visibility: 6 or more miles (10+ km)
Ceiling: at least 12,000 feet AGL
Clouds: few clouds at 1300 feet AGL
Weather: no significant weather observed at this time

METAR text: WIOO 240700Z 13008KT 9999 SCT013 33/22 Q1008 NOSIG
Conditions at: WIOO (PONTIANAK/SUPADI, ID) observed 0700 UTC 24 June 2019
Temperature: 33.0°C (91°F)
Dewpoint: 22.0°C (72°F) [RH = 53%]
Pressure (altimeter): 29.76 inches Hg (1008.0 mb)
Winds: from the SE (130 degrees) at 9 MPH (8 knots; 4.1 m/s)
Visibility: 6 or more miles (10+ km)
Ceiling: at least 12,000 feet AGL
Clouds: scattered clouds at 1300 feet AGL
Weather: no significant weather observed at this time

METAR text: WIOO 240630Z 15009KT 9999 SCT012 33/22 Q1009 NOSIG
Conditions at: WIOO (PONTIANAK/SUPADI, ID) observed 0630 UTC 24 June 2019
Temperature: 33.0°C (91°F)
Dewpoint: 22.0°C (72°F) [RH = 53%]
Pressure (altimeter): 29.79 inches Hg (1009.0 mb)
Winds: from the SSE (150 degrees) at 10 MPH (9 knots; 4.6 m/s)
Visibility: 6 or more miles (10+ km)
Ceiling: at least 12,000 feet AGL
Clouds: scattered clouds at 1200 feet AGL
Weather: no significant weather observed at this time

METAR text: WIOO 240600Z 10005KT 9999 SCT012 33/22 Q1009 NOSIG
Conditions at: WIOO (PONTIANAK/SUPADI, ID) observed 0600 UTC 24 June 2019
Temperature: 33.0°C (91°F)
Dewpoint: 22.0°C (72°F) [RH = 53%]
Pressure (altimeter): 29.79 inches Hg (1009.0 mb)
Winds: from the E (100 degrees) at 6 MPH (5 knots; 2.6 m/s)
Visibility: 6 or more miles (10+ km)
Ceiling: at least 12,000 feet AGL
Clouds: scattered clouds at 1200 feet AGL
Weather: no significant weather observed at this time

METAR text: WIOO 240530Z 11004KT 9999 FEW012 32/23 Q1009 NOSIG
Conditions at: WIOO (PONTIANAK/SUPADI, ID) observed 0530 UTC 24 June 2019
Temperature: 32.0°C (90°F)
Dewpoint: 23.0°C (73°F) [RH = 59%]
Pressure (altimeter): 29.79 inches Hg (1009.0 mb)
Winds: from the ESE (110 degrees) at 5 MPH (4 knots; 2.1 m/s)
Visibility: 6 or more miles (10+ km)
Ceiling: at least 12,000 feet AGL
Clouds: few clouds at 1200 feet AGL
Weather: no significant weather observed at this time

METAR text: WIOO 240500Z 08005KT 9999 FEW012 32/22 Q1010 NOSIG
Conditions at: WIOO (PONTIANAK/SUPADI, ID) observed 0500 UTC 24 June 2019
Temperature: 32.0°C (90°F)
Dewpoint: 22.0°C (72°F) [RH = 56%]
Pressure (altimeter): 29.82 inches Hg (1010.0 mb)
Winds: from the E (80 degrees) at 6 MPH (5 knots; 2.6 m/s)
Visibility: 6 or more miles (10+ km)
Ceiling: at least 12,000 feet AGL
Clouds: few clouds at 1200 feet AGL
Weather: no significant weather observed at this time

METAR text: WIOO 240400Z 14005KT 9999 SCT011 31/22 Q1010 NOSIG
Conditions at: WIOO (PONTIANAK/SUPADI, ID) observed 0400 UTC 24 June 2019
Temperature: 31.0°C (88°F)
Dewpoint: 22.0°C (72°F) [RH = 59%]
Pressure (altimeter): 29.82 inches Hg (1010.0 mb)
Winds: from the SE (140 degrees) at 6 MPH (5 knots; 2.6 m/s)
Visibility: 6 or more miles (10+ km)
Ceiling: at least 12,000 feet AGL
Clouds: scattered clouds at 1100 feet AGL
Weather: no significant weather observed at this time

METAR text: WIOO 240330Z 15007KT 9999 SCT011 30/23 Q1010 NOSIG
Conditions at: WIOO (PONTIANAK/SUPADI, ID) observed 0330 UTC 24 June 2019
Temperature: 30.0°C (86°F)
Dewpoint: 23.0°C (73°F) [RH = 66%]
Pressure (altimeter): 29.82 inches Hg (1010.0 mb)
Winds: from the SSE (150 degrees) at 8 MPH (7 knots; 3.6 m/s)
Visibility: 6 or more miles (10+ km)
Ceiling: at least 12,000 feet AGL
Clouds: scattered clouds at 1100 feet AGL
Weather: no significant weather observed at this time

METAR text: WIOO 240300Z 08004KT 9999 SCT011 29/24 Q1011 NOSIG
Conditions at: WIOO (PONTIANAK/SUPADI, ID) observed 0300 UTC 24 June 2019
Temperature: 29.0°C (84°F)
Dewpoint: 24.0°C (75°F) [RH = 74%]
Pressure (altimeter): 29.85 inches Hg (1011.0 mb)
Winds: from the E (80 degrees) at 5 MPH (4 knots; 2.1 m/s)
Visibility: 6 or more miles (10+ km)
Ceiling: at least 12,000 feet AGL
Clouds: scattered clouds at 1100 feet AGL
Weather: no significant weather observed at this time

METAR text: WIOO 240230Z 13005KT 9999 SCT011 29/24 Q1011 NOSIG
Conditions at: WIOO (PONTIANAK/SUPADI, ID) observed 0230 UTC 24 June 2019
Temperature: 29.0°C (84°F)
Dewpoint: 24.0°C (75°F) [RH = 74%]
Pressure (altimeter): 29.85 inches Hg (1011.0 mb)
Winds: from the SE (130 degrees) at 6 MPH (5 knots; 2.6 m/s)
Visibility: 6 or more miles (10+ km)
Ceiling: at least 12,000 feet AGL
Clouds: scattered clouds at 1100 feet AGL
Weather: no significant weather observed at this time

METAR text: WIOO 240200Z 08004KT 9999 SCT011 29/24 Q1011 NOSIG
Conditions at: WIOO (PONTIANAK/SUPADI, ID) observed 0200 UTC 24 June 2019
Temperature: 29.0°C (84°F)
Dewpoint: 24.0°C (75°F) [RH = 74%]
Pressure (altimeter): 29.85 inches Hg (1011.0 mb)
Winds: from the E (80 degrees) at 5 MPH (4 knots; 2.1 m/s)
Visibility: 6 or more miles (10+ km)
Ceiling: at least 12,000 feet AGL
Clouds: scattered clouds at 1100 feet AGL
Weather: no significant weather observed at this time

METAR text: WIOO 240130Z 13005KT 9999 FEW011 28/25 Q1011 NOSIG
Conditions at: WIOO (PONTIANAK/SUPADI, ID) observed 0130 UTC 24 June 2019
Temperature: 28.0°C (82°F)
Dewpoint: 25.0°C (77°F) [RH = 84%]
Pressure (altimeter): 29.85 inches Hg (1011.0 mb)
Winds: from the SE (130 degrees) at 6 MPH (5 knots; 2.6 m/s)
Visibility: 6 or more miles (10+ km)
Ceiling: at least 12,000 feet AGL
Clouds: few clouds at 1100 feet AGL
Weather: no significant weather observed at this time

METAR text: WIOO 240100Z 14007KT 9999 FEW012 27/25 Q1011 NOSIG
Conditions at: WIOO (PONTIANAK/SUPADI, ID) observed 0100 UTC 24 June 2019
Temperature: 27.0°C (81°F)
Dewpoint: 25.0°C (77°F) [RH = 89%]
Pressure (altimeter): 29.85 inches Hg (1011.0 mb)
Winds: from the SE (140 degrees) at 8 MPH (7 knots; 3.6 m/s)
Visibility: 6 or more miles (10+ km)
Ceiling: at least 12,000 feet AGL
Clouds: few clouds at 1200 feet AGL
Weather: no significant weather observed at this time

METAR text: WIOO 240030Z 14005KT 9999 FEW012 26/24 Q1011 NOSIG
Conditions at: WIOO (PONTIANAK/SUPADI, ID) observed 0030 UTC 24 June 2019
Temperature: 26.0°C (79°F)
Dewpoint: 24.0°C (75°F) [RH = 89%]
Pressure (altimeter): 29.85 inches Hg (1011.0 mb)
Winds: from the SE (140 degrees) at 6 MPH (5 knots; 2.6 m/s)
Visibility: 6 or more miles (10+ km)
Ceiling: at least 12,000 feet AGL
Clouds: few clouds at 1200 feet AGL
Weather: no significant weather observed at this time

METAR text: WIOO 240000Z 00000KT 3000 BR FEW012 25/24 Q1011 BECMG FM0030 9999 NSW
Conditions at: WIOO (PONTIANAK/SUPADI, ID) observed 0000 UTC 24 June 2019
Temperature: 25.0°C (77°F)
Dewpoint: 24.0°C (75°F) [RH = 94%]
Pressure (altimeter): 29.85 inches Hg (1011.0 mb)
Winds: calm
Visibility: 1.86 miles (2.99 km)
Ceiling: at least 12,000 feet AGL
Clouds: few clouds at 1200 feet AGL
Weather: BR  (mist)

METAR text: WIOO 232330Z 00000KT 1800 BR FEW012 25/24 Q1010 BECMG FM2400 8000 NSW
Conditions at: WIOO (PONTIANAK/SUPADI, ID) observed 2330 UTC 23 June 2019
Temperature: 25.0°C (77°F)
Dewpoint: 24.0°C (75°F) [RH = 94%]
Pressure (altimeter): 29.82 inches Hg (1010.0 mb)
Winds: calm
Visibility: 1.12 miles (1.80 km)
Ceiling: at least 12,000 feet AGL
Clouds: few clouds at 1200 feet AGL
Weather: BR  (mist)

METAR text: WIOO 232300Z 00000KT 1700 BR FEW012 24/23 Q1010 BECMG FM2400 8000 NSW
Conditions at: WIOO (PONTIANAK/SUPADI, ID) observed 2300 UTC 23 June 2019
Temperature: 24.0°C (75°F)
Dewpoint: 23.0°C (73°F) [RH = 94%]
Pressure (altimeter): 29.82 inches Hg (1010.0 mb)
Winds: calm
Visibility: 1.06 miles (1.71 km)
Ceiling: at least 12,000 feet AGL
Clouds: few clouds at 1200 feet AGL
Weather: BR  (mist)

METAR text: WIOO 232230Z 00000KT 3500 BR FEW012 25/24 Q1010 NOSIG
Conditions at: WIOO (PONTIANAK/SUPADI, ID) observed 2230 UTC 23 June 2019
Temperature: 25.0°C (77°F)
Dewpoint: 24.0°C (75°F) [RH = 94%]
Pressure (altimeter): 29.82 inches Hg (1010.0 mb)
Winds: calm
Visibility: 2.17 miles (3.49 km)
Ceiling: at least 12,000 feet AGL
Clouds: few clouds at 1200 feet AGL
Weather: BR  (mist)

METAR text: WIOO 231500Z 00000KT 6000 FEW012 26/24 Q1010 NOSIG
Conditions at: WIOO (PONTIANAK/SUPADI, ID) observed 1500 UTC 23 June 2019
Temperature: 26.0°C (79°F)
Dewpoint: 24.0°C (75°F) [RH = 89%]
Pressure (altimeter): 29.82 inches Hg (1010.0 mb)
Winds: calm
Visibility: 4 miles ( 6 km)
Ceiling: at least 12,000 feet AGL
Clouds: few clouds at 1200 feet AGL
Weather: no significant weather observed at this time

METAR text: WIOO 231430Z 00000KT 6000 FEW012 26/24 Q1010 NOSIG
Conditions at: WIOO (PONTIANAK/SUPADI, ID) observed 1430 UTC 23 June 2019
Temperature: 26.0°C (79°F)
Dewpoint: 24.0°C (75°F) [RH = 89%]
Pressure (altimeter): 29.82 inches Hg (1010.0 mb)
Winds: calm
Visibility: 4 miles ( 6 km)
Ceiling: at least 12,000 feet AGL
Clouds: few clouds at 1200 feet AGL
Weather: no significant weather observed at this time

METAR text: WIOO 231400Z 00000KT 6000 FEW012 27/24 Q1009 NOSIG
Conditions at: WIOO (PONTIANAK/SUPADI, ID) observed 1400 UTC 23 June 2019
Temperature: 27.0°C (81°F)
Dewpoint: 24.0°C (75°F) [RH = 84%]
Pressure (altimeter): 29.79 inches Hg (1009.0 mb)
Winds: calm
Visibility: 4 miles ( 6 km)
Ceiling: at least 12,000 feet AGL
Clouds: few clouds at 1200 feet AGL
Weather: no significant weather observed at this time

METAR text: WIOO 231330Z 19003KT 6000 FEW012 27/24 Q1009 NOSIG
Conditions at: WIOO (PONTIANAK/SUPADI, ID) observed 1330 UTC 23 June 2019
Temperature: 27.0°C (81°F)
Dewpoint: 24.0°C (75°F) [RH = 84%]
Pressure (altimeter): 29.79 inches Hg (1009.0 mb)
Winds: from the S (190 degrees) at 3 MPH (3 knots; 1.5 m/s)
Visibility: 4 miles ( 6 km)
Ceiling: at least 12,000 feet AGL
Clouds: few clouds at 1200 feet AGL
Weather: no significant weather observed at this time

METAR text: WIOO 231230Z 16003KT 6000 FEW013 28/25 Q1008 NOSIG
Conditions at: WIOO (PONTIANAK/SUPADI, ID) observed 1230 UTC 23 June 2019
Temperature: 28.0°C (82°F)
Dewpoint: 25.0°C (77°F) [RH = 84%]
Pressure (altimeter): 29.76 inches Hg (1008.0 mb)
Winds: from the SSE (160 degrees) at 3 MPH (3 knots; 1.5 m/s)
Visibility: 4 miles ( 6 km)
Ceiling: at least 12,000 feet AGL
Clouds: few clouds at 1300 feet AGL
Weather: no significant weather observed at this time

METAR text: WIOO 231200Z 16004KT 6000 FEW013 28/25 Q1008 NOSIG
Conditions at: WIOO (PONTIANAK/SUPADI, ID) observed 1200 UTC 23 June 2019
Temperature: 28.0°C (82°F)
Dewpoint: 25.0°C (77°F) [RH = 84%]
Pressure (altimeter): 29.76 inches Hg (1008.0 mb)
Winds: from the SSE (160 degrees) at 5 MPH (4 knots; 2.1 m/s)
Visibility: 4 miles ( 6 km)
Ceiling: at least 12,000 feet AGL
Clouds: few clouds at 1300 feet AGL
Weather: no significant weather observed at this time

METAR text: WIOO 231130Z 16005KT 7000 FEW012 29/25 Q1008 NOSIG
Conditions at: WIOO (PONTIANAK/SUPADI, ID) observed 1130 UTC 23 June 2019
Temperature: 29.0°C (84°F)
Dewpoint: 25.0°C (77°F) [RH = 79%]
Pressure (altimeter): 29.76 inches Hg (1008.0 mb)
Winds: from the SSE (160 degrees) at 6 MPH (5 knots; 2.6 m/s)
Visibility: 4 miles ( 7 km)
Ceiling: at least 12,000 feet AGL
Clouds: few clouds at 1200 feet AGL
Weather: no significant weather observed at this time

METAR text: WIOO 231100Z 17006KT 8000 FEW012 30/25 Q1007 NOSIG
Conditions at: WIOO (PONTIANAK/SUPADI, ID) observed 1100 UTC 23 June 2019
Temperature: 30.0°C (86°F)
Dewpoint: 25.0°C (77°F) [RH = 75%]
Pressure (altimeter): 29.73 inches Hg (1007.0 mb)
Winds: from the S (170 degrees) at 7 MPH (6 knots; 3.1 m/s)
Visibility: 5 miles ( 8 km)
Ceiling: at least 12,000 feet AGL
Clouds: few clouds at 1200 feet AGL
Weather: no significant weather observed at this time

METAR text: WIOO 231030Z 18006KT 8000 FEW011 30/25 Q1007 NOSIG
Conditions at: WIOO (PONTIANAK/SUPADI, ID) observed 1030 UTC 23 June 2019
Temperature: 30.0°C (86°F)
Dewpoint: 25.0°C (77°F) [RH = 75%]
Pressure (altimeter): 29.73 inches Hg (1007.0 mb)
Winds: from the S (180 degrees) at 7 MPH (6 knots; 3.1 m/s)
Visibility: 5 miles ( 8 km)
Ceiling: at least 12,000 feet AGL
Clouds: few clouds at 1100 feet AGL
Weather: no significant weather observed at this time

METAR text: WIOO 231000Z 19008KT 9999 FEW011 31/25 Q1007 NOSIG
Conditions at: WIOO (PONTIANAK/SUPADI, ID) observed 1000 UTC 23 June 2019
Temperature: 31.0°C (88°F)
Dewpoint: 25.0°C (77°F) [RH = 71%]
Pressure (altimeter): 29.73 inches Hg (1007.0 mb)
Winds: from the S (190 degrees) at 9 MPH (8 knots; 4.1 m/s)
Visibility: 6 or more miles (10+ km)
Ceiling: at least 12,000 feet AGL
Clouds: few clouds at 1100 feet AGL
Weather: no significant weather observed at this time

METAR text: WIOO 230930Z 16007KT 9999 SCT011 32/25 Q1007 NOSIG
Conditions at: WIOO (PONTIANAK/SUPADI, ID) observed 0930 UTC 23 June 2019
Temperature: 32.0°C (90°F)
Dewpoint: 25.0°C (77°F) [RH = 67%]
Pressure (altimeter): 29.73 inches Hg (1007.0 mb)
Winds: from the SSE (160 degrees) at 8 MPH (7 knots; 3.6 m/s)
Visibility: 6 or more miles (10+ km)
Ceiling: at least 12,000 feet AGL
Clouds: scattered clouds at 1100 feet AGL
Weather: no significant weather observed at this time

METAR text: WIOO 230900Z 17008KT 9999 SCT011 32/25 Q1006 NOSIG
Conditions at: WIOO (PONTIANAK/SUPADI, ID) observed 0900 UTC 23 June 2019
Temperature: 32.0°C (90°F)
Dewpoint: 25.0°C (77°F) [RH = 67%]
Pressure (altimeter): 29.70 inches Hg (1006.0 mb)
Winds: from the S (170 degrees) at 9 MPH (8 knots; 4.1 m/s)
Visibility: 6 or more miles (10+ km)
Ceiling: at least 12,000 feet AGL
Clouds: scattered clouds at 1100 feet AGL
Weather: no significant weather observed at this time

METAR text: WIOO 230830Z 18007KT 9999 SCT011 32/24 Q1006 NOSIG
Conditions at: WIOO (PONTIANAK/SUPADI, ID) observed 0830 UTC 23 June 2019
Temperature: 32.0°C (90°F)
Dewpoint: 24.0°C (75°F) [RH = 63%]
Pressure (altimeter): 29.70 inches Hg (1006.0 mb)
Winds: from the S (180 degrees) at 8 MPH (7 knots; 3.6 m/s)
Visibility: 6 or more miles (10+ km)
Ceiling: at least 12,000 feet AGL
Clouds: scattered clouds at 1100 feet AGL
Weather: no significant weather observed at this time

METAR text: WIOO 230800Z 16010KT 9999 SCT011 33/24 Q1006 NOSIG
Conditions at: WIOO (PONTIANAK/SUPADI, ID) observed 0800 UTC 23 June 2019
Temperature: 33.0°C (91°F)
Dewpoint: 24.0°C (75°F) [RH = 59%]
Pressure (altimeter): 29.70 inches Hg (1006.0 mb)
Winds: from the SSE (160 degrees) at 12 MPH (10 knots; 5.1 m/s)
Visibility: 6 or more miles (10+ km)
Ceiling: at least 12,000 feet AGL
Clouds: scattered clouds at 1100 feet AGL
Weather: no significant weather observed at this time

METAR text: WIOO 230730Z 18007KT 9999 SCT011 32/24 Q1006 NOSIG
Conditions at: WIOO (PONTIANAK/SUPADI, ID) observed 0730 UTC 23 June 2019
Temperature: 32.0°C (90°F)
Dewpoint: 24.0°C (75°F) [RH = 63%]
Pressure (altimeter): 29.70 inches Hg (1006.0 mb)
Winds: from the S (180 degrees) at 8 MPH (7 knots; 3.6 m/s)
Visibility: 6 or more miles (10+ km)
Ceiling: at least 12,000 feet AGL
Clouds: scattered clouds at 1100 feet AGL
Weather: no significant weather observed at this time

METAR text: WIOO 230700Z 16008KT 9999 SCT011 33/24 Q1006 NOSIG
Conditions at: WIOO (PONTIANAK/SUPADI, ID) observed 0700 UTC 23 June 2019
Temperature: 33.0°C (91°F)
Dewpoint: 24.0°C (75°F) [RH = 59%]
Pressure (altimeter): 29.70 inches Hg (1006.0 mb)
Winds: from the SSE (160 degrees) at 9 MPH (8 knots; 4.1 m/s)
Visibility: 6 or more miles (10+ km)
Ceiling: at least 12,000 feet AGL
Clouds: scattered clouds at 1100 feet AGL
Weather: no significant weather observed at this time

METAR text: WIOO 230630Z 19007KT 9999 SCT011 32/24 Q1007 NOSIG
Conditions at: WIOO (PONTIANAK/SUPADI, ID) observed 0630 UTC 23 June 2019
Temperature: 32.0°C (90°F)
Dewpoint: 24.0°C (75°F) [RH = 63%]
Pressure (altimeter): 29.73 inches Hg (1007.0 mb)
Winds: from the S (190 degrees) at 8 MPH (7 knots; 3.6 m/s)
Visibility: 6 or more miles (10+ km)
Ceiling: at least 12,000 feet AGL
Clouds: scattered clouds at 1100 feet AGL
Weather: no significant weather observed at this time

METAR text: WIOO 230600Z 18006KT 9999 SCT011 32/24 Q1007 NOSIG
Conditions at: WIOO (PONTIANAK/SUPADI, ID) observed 0600 UTC 23 June 2019
Temperature: 32.0°C (90°F)
Dewpoint: 24.0°C (75°F) [RH = 63%]
Pressure (altimeter): 29.73 inches Hg (1007.0 mb)
Winds: from the S (180 degrees) at 7 MPH (6 knots; 3.1 m/s)
Visibility: 6 or more miles (10+ km)
Ceiling: at least 12,000 feet AGL
Clouds: scattered clouds at 1100 feet AGL
Weather: no significant weather observed at this time

METAR text: WIOO 230530Z 16009KT 9999 SCT011 32/23 Q1007 NOSIG
Conditions at: WIOO (PONTIANAK/SUPADI, ID) observed 0530 UTC 23 June 2019
Temperature: 32.0°C (90°F)
Dewpoint: 23.0°C (73°F) [RH = 59%]
Pressure (altimeter): 29.73 inches Hg (1007.0 mb)
Winds: from the SSE (160 degrees) at 10 MPH (9 knots; 4.6 m/s)
Visibility: 6 or more miles (10+ km)
Ceiling: at least 12,000 feet AGL
Clouds: scattered clouds at 1100 feet AGL
Weather: no significant weather observed at this time